Time,TemperatureF,DewpointF,PressureIn,WindDirection,WindDirectionDegrees,WindSpeedMPH,WindSpeedGustMPH,Humidity,HourlyPrecipIn,Conditions,Clouds,dailyrainin,SoftwareType,DateUTC
2013-09-21 00:05:00,55.1,54.0,29.70,ENE,65,0.0,0.0,94,0.00,,,0.00,weatherlink.com 1.10,2013-09-21 07:05:00,
2013-09-21 00:19:00,54.9,54.0,29.69,ENE,65,0.0,0.0,95,0.00,,,0.00,weatherlink.com 1.10,2013-09-21 07:19:00,
2013-09-21 00:34:00,54.6,53.0,29.69,ENE,65,0.0,0.0,95,0.00,,,0.00,weatherlink.com 1.10,2013-09-21 07:34:00,
2013-09-21 00:49:00,54.5,53.0,29.68,ENE,65,0.0,1.0,95,0.00,,,0.00,weatherlink.com 1.10,2013-09-21 07:49:00,
2013-09-21 01:04:00,54.2,53.0,29.68,ENE,65,0.0,1.0,95,0.00,,,0.00,weatherlink.com 1.10,2013-09-21 08:04:00,
2013-09-21 01:19:00,53.9,53.0,29.68,ENE,65,0.0,1.0,95,0.00,,,0.00,weatherlink.com 1.10,2013-09-21 08:19:00,
2013-09-21 01:34:00,53.7,52.0,29.69,ENE,65,0.0,1.0,95,0.00,,,0.00,weatherlink.com 1.10,2013-09-21 08:34:00,
2013-09-21 01:49:00,53.5,52.0,29.69,ENE,65,0.0,1.0,95,0.00,,,0.00,weatherlink.com 1.10,2013-09-21 08:49:00,
2013-09-21 02:04:00,53.4,52.0,29.68,ENE,65,0.0,1.0,96,0.00,,,0.00,weatherlink.com 1.10,2013-09-21 09:04:00,
2013-09-21 02:19:00,53.2,52.0,29.69,ENE,65,0.0,1.0,96,0.00,,,0.00,weatherlink.com 1.10,2013-09-21 09:19:00,
2013-09-21 02:34:00,53.0,52.0,29.69,ENE,65,0.0,1.0,96,0.00,,,0.00,weatherlink.com 1.10,2013-09-21 09:34:00,
2013-09-21 02:49:00,52.8,52.0,29.70,ENE,65,0.0,0.0,96,0.00,,,0.00,weatherlink.com 1.10,2013-09-21 09:49:00,
2013-09-21 03:04:00,52.5,51.0,29.70,ENE,65,0.0,1.0,96,0.00,,,0.00,weatherlink.com 1.10,2013-09-21 10:04:00,
2013-09-21 03:20:00,52.4,51.0,29.70,ENE,65,0.0,0.0,96,0.00,,,0.00,weatherlink.com 1.10,2013-09-21 10:20:00,
2013-09-21 03:34:00,52.3,51.0,29.70,ENE,65,0.0,1.0,96,0.00,,,0.00,weatherlink.com 1.10,2013-09-21 10:34:00,
2013-09-21 03:49:00,52.2,51.0,29.70,ENE,65,0.0,1.0,96,0.00,,,0.00,weatherlink.com 1.10,2013-09-21 10:49:00,
2013-09-21 04:04:00,52.0,51.0,29.70,ENE,65,0.0,1.0,96,0.00,,,0.00,weatherlink.com 1.10,2013-09-21 11:04:00,
2013-09-21 04:19:00,51.8,51.0,29.70,ENE,65,0.0,0.0,96,0.00,,,0.00,weatherlink.com 1.10,2013-09-21 11:19:00,
2013-09-21 04:34:00,52.0,51.0,29.70,ENE,65,0.0,0.0,96,0.00,,,0.00,weatherlink.com 1.10,2013-09-21 11:34:00,
2013-09-21 04:49:00,52.0,51.0,29.70,ENE,65,0.0,0.0,96,0.00,,,0.00,weatherlink.com 1.10,2013-09-21 11:49:00,
2013-09-21 05:04:00,52.0,51.0,29.70,ENE,65,0.0,1.0,96,0.00,,,0.00,weatherlink.com 1.10,2013-09-21 12:04:00,
2013-09-21 05:19:00,52.2,51.0,29.70,ENE,65,0.0,1.0,97,0.00,,,0.00,weatherlink.com 1.10,2013-09-21 12:19:00,
2013-09-21 05:34:00,52.2,51.0,29.70,ENE,65,0.0,0.0,97,0.00,,,0.00,weatherlink.com 1.10,2013-09-21 12:34:00,
2013-09-21 05:49:00,52.1,51.0,29.71,ENE,65,0.0,0.0,96,0.00,,,0.00,weatherlink.com 1.10,2013-09-21 12:49:00,
2013-09-21 06:04:00,52.4,52.0,29.70,ENE,65,0.0,1.0,97,0.00,,,0.00,weatherlink.com 1.10,2013-09-21 13:04:00,
2013-09-21 06:19:00,52.6,52.0,29.70,ENE,65,0.0,1.0,97,0.00,,,0.00,weatherlink.com 1.10,2013-09-21 13:19:00,
2013-09-21 06:34:00,52.6,52.0,29.70,ENE,65,0.0,0.0,97,0.00,,,0.00,weatherlink.com 1.10,2013-09-21 13:34:00,
2013-09-21 06:50:00,52.4,52.0,29.70,ENE,65,0.0,0.0,97,0.00,,,0.00,weatherlink.com 1.10,2013-09-21 13:50:00,
2013-09-21 07:05:00,52.2,51.0,29.70,ENE,65,0.0,1.0,97,0.00,,,0.00,weatherlink.com 1.10,2013-09-21 14:05:00,
2013-09-21 07:19:00,52.2,51.0,29.70,ENE,65,0.0,0.0,97,0.00,,,0.00,weatherlink.com 1.10,2013-09-21 14:19:00,
2013-09-21 07:35:00,52.3,52.0,29.70,ENE,65,0.0,0.0,97,0.00,,,0.00,weatherlink.com 1.10,2013-09-21 14:35:00,
2013-09-21 07:50:00,52.6,52.0,29.71,ENE,65,0.0,0.0,97,0.00,,,0.00,weatherlink.com 1.10,2013-09-21 14:50:00,
2013-09-21 08:05:00,52.8,52.0,29.71,ENE,65,0.0,0.0,97,0.00,,,0.00,weatherlink.com 1.10,2013-09-21 15:05:00,
2013-09-21 08:20:00,53.0,52.0,29.71,ENE,65,0.0,0.0,97,0.00,,,0.00,weatherlink.com 1.10,2013-09-21 15:20:00,
2013-09-21 08:35:00,53.4,53.0,29.72,ENE,65,0.0,51.0,97,0.00,,,0.00,weatherlink.com 1.10,2013-09-21 15:35:00,
2013-09-21 08:50:00,54.2,54.0,29.72,ENE,65,0.0,2.0,98,0.00,,,0.00,weatherlink.com 1.10,2013-09-21 15:50:00,
2013-09-21 09:05:00,54.4,54.0,29.72,ENE,65,0.0,0.0,97,0.00,,,0.00,weatherlink.com 1.10,2013-09-21 16:05:00,
2013-09-21 09:20:00,54.8,54.0,29.73,ENE,65,0.0,0.0,97,0.00,,,0.00,weatherlink.com 1.10,2013-09-21 16:20:00,
2013-09-21 09:36:00,55.5,55.0,29.73,ENE,65,0.0,2.0,97,0.00,,,0.00,weatherlink.com 1.10,2013-09-21 16:36:00,
2013-09-21 09:50:00,56.1,55.0,29.73,ENE,64,0.0,3.0,95,0.00,,,0.00,weatherlink.com 1.10,2013-09-21 16:50:00,
2013-09-21 10:05:00,56.7,55.0,29.73,ENE,64,0.0,1.0,95,0.00,,,0.00,weatherlink.com 1.10,2013-09-21 17:05:00,
2013-09-21 10:21:00,57.3,55.0,29.72,East,85,0.0,2.0,91,0.00,,,0.00,weatherlink.com 1.10,2013-09-21 17:21:00,
2013-09-21 10:35:00,58.3,55.0,29.72,ENE,65,0.0,1.0,89,0.00,,,0.00,weatherlink.com 1.10,2013-09-21 17:35:00,
2013-09-21 10:51:00,59.0,55.0,29.72,ENE,72,0.0,2.0,85,0.00,,,0.00,weatherlink.com 1.10,2013-09-21 17:51:00,
2013-09-21 11:05:00,60.0,55.0,29.72,East,79,0.0,1.0,84,0.00,,,0.00,weatherlink.com 1.10,2013-09-21 18:05:00,
2013-09-21 11:21:00,61.0,54.0,29.71,NE,56,0.0,3.0,78,0.00,,,0.00,weatherlink.com 1.10,2013-09-21 18:21:00,
2013-09-21 11:36:00,62.6,53.0,29.71,WSW,243,0.0,3.0,72,0.00,,,0.00,weatherlink.com 1.10,2013-09-21 18:36:00,
2013-09-21 11:51:00,63.4,53.0,29.71,WSW,242,0.0,3.0,69,0.00,,,0.00,weatherlink.com 1.10,2013-09-21 18:51:00,
2013-09-21 12:06:00,64.1,54.0,29.71,NNW,345,1.0,3.0,69,0.00,,,0.00,weatherlink.com 1.10,2013-09-21 19:06:00,
2013-09-21 12:21:00,64.0,53.0,29.70,East,87,1.0,4.0,68,0.00,,,0.00,weatherlink.com 1.10,2013-09-21 19:21:00,
2013-09-21 12:37:00,64.3,53.0,29.70,North,349,1.0,3.0,66,0.00,,,0.00,weatherlink.com 1.10,2013-09-21 19:37:00,
2013-09-21 12:51:00,64.8,52.0,29.69,NNW,330,1.0,6.0,63,0.00,,,0.00,weatherlink.com 1.10,2013-09-21 19:51:00,
2013-09-21 13:06:00,66.2,52.0,29.69,East,89,3.0,3.0,61,0.00,,,0.00,weatherlink.com 1.10,2013-09-21 20:06:00,
2013-09-21 13:21:00,66.9,53.0,29.69,NNE,25,1.0,4.0,61,0.00,,,0.00,weatherlink.com 1.10,2013-09-21 20:21:00,
2013-09-21 13:36:00,67.6,52.0,29.69,WSW,255,1.0,5.0,57,0.00,,,0.00,weatherlink.com 1.10,2013-09-21 20:36:00,
2013-09-21 13:50:00,68.1,53.0,29.68,ESE,103,0.0,4.0,58,0.00,,,0.00,weatherlink.com 1.10,2013-09-21 20:50:00,
2013-09-21 14:06:00,67.3,52.0,29.68,WSW,255,1.0,5.0,59,0.00,,,0.00,weatherlink.com 1.10,2013-09-21 21:06:00,
2013-09-21 14:20:00,68.4,51.0,29.68,NW,316,1.0,7.0,54,0.00,,,0.00,weatherlink.com 1.10,2013-09-21 21:20:00,
2013-09-21 14:36:00,67.9,51.0,29.68,NNE,15,1.0,6.0,55,0.00,,,0.00,weatherlink.com 1.10,2013-09-21 21:36:00,
2013-09-21 14:52:00,65.3,51.0,29.69,East,99,2.0,3.0,60,0.00,,,0.00,weatherlink.com 1.10,2013-09-21 21:52:00,
2013-09-21 15:06:00,63.7,51.0,29.70,NE,39,0.0,5.0,63,0.00,,,0.00,weatherlink.com 1.10,2013-09-21 22:06:00,
2013-09-21 15:21:00,62.9,51.0,29.70,North,354,4.0,8.0,66,0.00,,,0.00,weatherlink.com 1.10,2013-09-21 22:21:00,
2013-09-21 15:36:00,62.7,51.0,29.71,NE,36,2.0,7.0,65,0.00,,,0.00,weatherlink.com 1.10,2013-09-21 22:36:00,
2013-09-21 15:50:00,62.9,51.0,29.71,East,97,1.0,4.0,66,0.00,,,0.00,weatherlink.com 1.10,2013-09-21 22:50:00,
2013-09-21 16:06:00,62.2,51.0,29.71,East,91,3.0,5.0,66,0.00,,,0.00,weatherlink.com 1.10,2013-09-21 23:06:00,
2013-09-21 16:21:00,62.4,50.0,29.72,East,97,4.0,5.0,65,0.00,,,0.00,weatherlink.com 1.10,2013-09-21 23:21:00,
2013-09-21 16:38:00,60.6,52.0,29.72,ENE,78,0.0,3.0,72,0.00,,,0.00,weatherlink.com 1.10,2013-09-21 23:38:00,
2013-09-21 16:51:00,59.7,51.0,29.73,NNW,336,1.0,3.0,73,0.00,,,0.00,weatherlink.com 1.10,2013-09-21 23:51:00,
2013-09-21 17:06:00,59.9,52.0,29.73,East,89,1.0,3.0,74,0.00,,,0.00,weatherlink.com 1.10,2013-09-22 00:06:00,
2013-09-21 17:21:00,60.0,51.0,29.73,NE,47,0.0,4.0,73,0.00,,,0.00,weatherlink.com 1.10,2013-09-22 00:21:00,
2013-09-21 17:36:00,60.8,52.0,29.73,WSW,257,1.0,4.0,72,0.00,,,0.00,weatherlink.com 1.10,2013-09-22 00:36:00,
2013-09-21 17:52:00,61.0,51.0,29.73,ESE,115,1.0,4.0,70,0.00,,,0.00,weatherlink.com 1.10,2013-09-22 00:52:00,
2013-09-21 18:07:00,60.1,51.0,29.72,NW,319,2.0,4.0,71,0.00,,,0.00,weatherlink.com 1.10,2013-09-22 01:07:00,
2013-09-21 18:21:00,59.2,51.0,29.72,NW,308,1.0,2.0,73,0.00,,,0.00,weatherlink.com 1.10,2013-09-22 01:21:00,
2013-09-21 18:36:00,58.8,51.0,29.72,NNW,336,2.0,5.0,75,0.00,,,0.00,weatherlink.com 1.10,2013-09-22 01:36:00,
2013-09-21 18:52:00,58.5,51.0,29.71,NNW,336,1.0,3.0,76,0.00,,,0.00,weatherlink.com 1.10,2013-09-22 01:52:00,
2013-09-21 19:06:00,58.2,51.0,29.72,NNE,33,1.0,6.0,77,0.00,,,0.00,weatherlink.com 1.10,2013-09-22 02:06:00,
2013-09-21 19:22:00,58.2,51.0,29.72,NE,38,1.0,3.0,77,0.00,,,0.00,weatherlink.com 1.10,2013-09-22 02:22:00,
2013-09-21 19:36:00,57.9,51.0,29.73,NW,318,1.0,5.0,78,0.00,,,0.00,weatherlink.com 1.10,2013-09-22 02:36:00,
2013-09-21 19:51:00,57.8,50.0,29.74,West,274,0.0,4.0,76,0.00,,,0.00,weatherlink.com 1.10,2013-09-22 02:51:00,
2013-09-21 20:06:00,57.5,51.0,29.75,ENE,78,2.0,4.0,78,0.00,,,0.00,weatherlink.com 1.10,2013-09-22 03:06:00,
2013-09-21 20:21:00,57.1,51.0,29.75,West,269,0.0,2.0,80,0.00,,,0.00,weatherlink.com 1.10,2013-09-22 03:21:00,
2013-09-21 20:36:00,56.8,51.0,29.75,North,10,2.0,4.0,81,0.00,,,0.00,weatherlink.com 1.10,2013-09-22 03:36:00,
2013-09-21 20:51:00,56.4,51.0,29.76,North,356,0.0,3.0,82,0.00,,,0.00,weatherlink.com 1.10,2013-09-22 03:51:00,
2013-09-21 21:06:00,55.9,51.0,29.75,NE,51,1.0,3.0,83,0.00,,,0.00,weatherlink.com 1.10,2013-09-22 04:06:00,
2013-09-21 21:21:00,55.5,51.0,29.75,NE,34,0.0,2.0,84,0.00,,,0.00,weatherlink.com 1.10,2013-09-22 04:21:00,
2013-09-21 21:36:00,55.1,51.0,29.75,ESE,121,0.0,4.0,86,0.00,,,0.00,weatherlink.com 1.10,2013-09-22 04:36:00,
2013-09-21 21:51:00,54.8,51.0,29.75,NNE,25,0.0,4.0,87,0.00,,,0.00,weatherlink.com 1.10,2013-09-22 04:51:00,
2013-09-21 22:06:00,54.5,51.0,29.75,ENE,63,0.0,1.0,87,0.00,,,0.00,weatherlink.com 1.10,2013-09-22 05:06:00,
2013-09-21 22:21:00,54.3,51.0,29.75,WNW,302,0.0,3.0,88,0.00,,,0.00,weatherlink.com 1.10,2013-09-22 05:21:00,
2013-09-21 22:36:00,54.1,51.0,29.76,ENE,72,0.0,2.0,88,0.00,,,0.00,weatherlink.com 1.10,2013-09-22 05:36:00,
2013-09-21 22:51:00,53.9,51.0,29.76,NW,305,0.0,4.0,88,0.00,,,0.00,weatherlink.com 1.10,2013-09-22 05:51:00,
2013-09-21 23:21:00,53.9,51.0,29.76,WSW,252,1.0,2.0,88,0.00,,,0.00,weatherlink.com 1.10,2013-09-22 06:21:00,
2013-09-21 23:38:00,53.7,51.0,29.77,NE,44,1.0,2.0,89,0.00,,,0.00,weatherlink.com 1.10,2013-09-22 06:38:00,
2013-09-21 23:51:00,53.7,51.0,29.76,ENE,75,2.0,4.0,89,0.00,,,0.00,weatherlink.com 1.10,2013-09-22 06:51:00,